Bookmark and Share
Track history (hours):
 

Callsign V2FL5 (name unknown)

Last reported at 2013-Jul-02 21:03 UTC. Time now 2014-Apr-16 07:40 UTC.
Position N 39°35' E 025°42'.
Warning: this ship's position is months out of date.

NotesDate/timePositionNaut miles runAvg speedWind from/ knotsBaromVisibWave heightAir tempDewpointWater temp
2013-Jul-02 21:03N 39°35' E 025°42'510.1
2013-Jul-02 20:33N 39°31' E 025°39'12 9.7
2013-Jul-02 19:17N 39°20' E 025°31'1110.0
2013-Jul-02 18:09N 39°10' E 025°25'16 9.9
2013-Jul-02 16:33N 38°56' E 025°16'10 9.7
2013-Jul-02 15:34N 38°47' E 025°10'21 9.8
2013-Jul-02 13:28N 38°29' E 024°58'1210.2
2013-Jul-02 12:16N 38°18' E 024°51'810.4
2013-Jul-02 11:31N 38°11' E 024°47'19 9.4
2013-Jul-02 09:28N 37°54' E 024°36'9 9.3
2013-Jul-02 08:33N 37°46' E 024°32'10 9.9
2013-Jul-02 07:33N 37°37' E 024°27'11 9.3
2013-Jul-02 06:21N 37°28' E 024°19'7 9.3
2013-Jul-02 05:33N 37°22' E 024°14'9 9.4
2013-Jul-02 04:33N 37°14' E 024°07'10 9.5
2013-Jul-02 03:33N 37°06' E 024°01'1010.1
2013-Jul-02 02:33N 36°58' E 023°53'1010.1
2013-Jul-02 01:32N 36°49' E 023°46'1010.1
2013-Jul-02 00:33N 36°41' E 023°40'1010.3
2013-Jul-01 23:33N 36°32' E 023°33'1010.4
2013-Jul-01 22:33N 36°23' E 023°27'1010.3
2013-Jul-01 21:33N 36°14' E 023°20'1010.2
2013-Jul-01 20:33N 36°05' E 023°14'  
2013-Jun-25 12:31N 32°54' E 013°11'0 0.0
2013-Jun-25 10:31N 32°54' E 013°11'  

Dump ship's entire track history

sailing weather and tide predictions

Ship Status Report: callsign V2FL5